sensor_id;sensor_type;location;lat;lon;timestamp;P1;durP1;ratioP1;P2;durP2;ratioP2
11522;SDS011;40093;43.224;27.910;2022-12-07T00:01:46;6.10;;;4.90;;
11522;SDS011;40093;43.224;27.910;2022-12-07T00:04:15;6.67;;;4.07;;
11522;SDS011;40093;43.224;27.910;2022-12-07T00:06:44;4.20;;;3.10;;
11522;SDS011;40093;43.224;27.910;2022-12-07T00:09:13;4.53;;;3.07;;
11522;SDS011;40093;43.224;27.910;2022-12-07T00:11:42;4.73;;;3.20;;
11522;SDS011;40093;43.224;27.910;2022-12-07T00:14:10;4.47;;;3.10;;
11522;SDS011;40093;43.224;27.910;2022-12-07T00:16:38;7.77;;;4.07;;
11522;SDS011;40093;43.224;27.910;2022-12-07T00:19:05;5.33;;;3.70;;
11522;SDS011;40093;43.224;27.910;2022-12-07T00:21:34;5.03;;;3.93;;
11522;SDS011;40093;43.224;27.910;2022-12-07T00:24:02;8.27;;;4.70;;
11522;SDS011;40093;43.224;27.910;2022-12-07T00:26:31;6.73;;;4.50;;
11522;SDS011;40093;43.224;27.910;2022-12-07T00:29:01;4.83;;;3.57;;
11522;SDS011;40093;43.224;27.910;2022-12-07T00:31:31;7.10;;;3.80;;
11522;SDS011;40093;43.224;27.910;2022-12-07T00:34:00;5.30;;;3.73;;
11522;SDS011;40093;43.224;27.910;2022-12-07T00:36:27;3.97;;;3.57;;
11522;SDS011;40093;43.224;27.910;2022-12-07T00:38:56;6.17;;;3.50;;
11522;SDS011;40093;43.224;27.910;2022-12-07T00:41:25;4.60;;;3.57;;
11522;SDS011;40093;43.224;27.910;2022-12-07T00:43:52;4.57;;;3.17;;
11522;SDS011;40093;43.224;27.910;2022-12-07T00:46:20;5.90;;;4.20;;
11522;SDS011;40093;43.224;27.910;2022-12-07T00:48:48;4.60;;;3.57;;
11522;SDS011;40093;43.224;27.910;2022-12-07T00:51:16;4.47;;;3.30;;
11522;SDS011;40093;43.224;27.910;2022-12-07T00:53:45;4.70;;;3.20;;
11522;SDS011;40093;43.224;27.910;2022-12-07T00:56:15;4.73;;;3.60;;
11522;SDS011;40093;43.224;27.910;2022-12-07T00:58:43;4.40;;;3.60;;
11522;SDS011;40093;43.224;27.910;2022-12-07T01:01:10;4.70;;;3.50;;
11522;SDS011;40093;43.224;27.910;2022-12-07T01:03:39;5.77;;;3.50;;
11522;SDS011;40093;43.224;27.910;2022-12-07T01:06:06;4.30;;;3.40;;
11522;SDS011;40093;43.224;27.910;2022-12-07T01:08:33;3.80;;;3.10;;
11522;SDS011;40093;43.224;27.910;2022-12-07T01:11:00;3.83;;;3.00;;
11522;SDS011;40093;43.224;27.910;2022-12-07T01:13:31;4.63;;;3.03;;
11522;SDS011;40093;43.224;27.910;2022-12-07T01:15:58;5.30;;;3.20;;
11522;SDS011;40093;43.224;27.910;2022-12-07T01:18:26;3.70;;;3.00;;
11522;SDS011;40093;43.224;27.910;2022-12-07T01:20:58;3.87;;;2.83;;
11522;SDS011;40093;43.224;27.910;2022-12-07T01:23:27;2.97;;;2.67;;
11522;SDS011;40093;43.224;27.910;2022-12-07T01:25:56;11.40;;;10.20;;
11522;SDS011;40093;43.224;27.910;2022-12-07T01:28:23;18.30;;;16.40;;
11522;SDS011;40093;43.224;27.910;2022-12-07T01:30:58;25.10;;;22.47;;
11522;SDS011;40093;43.224;27.910;2022-12-07T01:33:27;46.27;;;39.93;;
11522;SDS011;40093;43.224;27.910;2022-12-07T01:36:00;32.47;;;26.93;;
11522;SDS011;40093;43.224;27.910;2022-12-07T01:38:28;33.83;;;29.50;;
11522;SDS011;40093;43.224;27.910;2022-12-07T01:40:55;21.17;;;18.07;;
11522;SDS011;40093;43.224;27.910;2022-12-07T01:43:23;13.77;;;8.90;;
11522;SDS011;40093;43.224;27.910;2022-12-07T01:45:53;8.23;;;6.27;;
11522;SDS011;40093;43.224;27.910;2022-12-07T01:48:22;6.67;;;5.00;;
11522;SDS011;40093;43.224;27.910;2022-12-07T01:50:53;5.83;;;4.43;;
11522;SDS011;40093;43.224;27.910;2022-12-07T01:53:22;5.57;;;3.60;;
11522;SDS011;40093;43.224;27.910;2022-12-07T01:55:52;4.03;;;3.37;;
11522;SDS011;40093;43.224;27.910;2022-12-07T01:58:21;12.53;;;9.23;;
11522;SDS011;40093;43.224;27.910;2022-12-07T02:00:48;5.67;;;4.73;;
11522;SDS011;40093;43.224;27.910;2022-12-07T02:03:17;5.83;;;4.50;;
11522;SDS011;40093;43.224;27.910;2022-12-07T02:05:49;3.67;;;3.37;;
11522;SDS011;40093;43.224;27.910;2022-12-07T02:08:17;6.07;;;4.00;;
11522;SDS011;40093;43.224;27.910;2022-12-07T02:10:45;8.23;;;3.80;;
11522;SDS011;40093;43.224;27.910;2022-12-07T02:13:13;5.10;;;4.13;;
11522;SDS011;40093;43.224;27.910;2022-12-07T02:15:58;5.93;;;3.90;;
11522;SDS011;40093;43.224;27.910;2022-12-07T02:18:38;5.73;;;4.47;;
11522;SDS011;40093;43.224;27.910;2022-12-07T02:21:18;5.30;;;4.40;;
11522;SDS011;40093;43.224;27.910;2022-12-07T02:23:59;6.17;;;4.40;;
11522;SDS011;40093;43.224;27.910;2022-12-07T02:29:56;7.67;;;5.20;;
11522;SDS011;40093;43.224;27.910;2022-12-07T02:32:27;5.60;;;5.03;;
11522;SDS011;40093;43.224;27.910;2022-12-07T02:35:04;6.67;;;5.23;;
11522;SDS011;40093;43.224;27.910;2022-12-07T02:37:35;6.30;;;5.27;;
11522;SDS011;40093;43.224;27.910;2022-12-07T02:40:09;8.00;;;5.20;;
11522;SDS011;40093;43.224;27.910;2022-12-07T02:42:40;7.77;;;5.70;;
11522;SDS011;40093;43.224;27.910;2022-12-07T02:45:13;5.97;;;5.37;;
11522;SDS011;40093;43.224;27.910;2022-12-07T02:47:44;6.70;;;5.70;;
11522;SDS011;40093;43.224;27.910;2022-12-07T02:50:13;6.60;;;5.70;;
11522;SDS011;40093;43.224;27.910;2022-12-07T02:52:44;8.33;;;6.40;;
11522;SDS011;40093;43.224;27.910;2022-12-07T02:55:10;6.53;;;5.73;;
11522;SDS011;40093;43.224;27.910;2022-12-07T02:57:42;6.73;;;5.80;;
11522;SDS011;40093;43.224;27.910;2022-12-07T03:00:21;7.57;;;6.03;;
11522;SDS011;40093;43.224;27.910;2022-12-07T03:02:50;8.53;;;6.40;;
11522;SDS011;40093;43.224;27.910;2022-12-07T03:05:43;8.27;;;6.80;;
11522;SDS011;40093;43.224;27.910;2022-12-07T03:08:21;8.53;;;7.17;;
11522;SDS011;40093;43.224;27.910;2022-12-07T03:10:56;9.30;;;6.40;;
11522;SDS011;40093;43.224;27.910;2022-12-07T03:13:25;7.70;;;6.67;;
11522;SDS011;40093;43.224;27.910;2022-12-07T03:16:01;8.23;;;6.80;;
11522;SDS011;40093;43.224;27.910;2022-12-07T03:18:34;7.83;;;6.97;;
11522;SDS011;40093;43.224;27.910;2022-12-07T03:21:07;7.40;;;6.60;;
11522;SDS011;40093;43.224;27.910;2022-12-07T03:23:38;9.20;;;6.90;;
11522;SDS011;40093;43.224;27.910;2022-12-07T03:26:09;9.27;;;7.93;;
11522;SDS011;40093;43.224;27.910;2022-12-07T03:28:40;10.47;;;8.73;;
11522;SDS011;40093;43.224;27.910;2022-12-07T03:31:14;11.47;;;9.17;;
11522;SDS011;40093;43.224;27.910;2022-12-07T03:33:48;11.50;;;9.23;;
11522;SDS011;40093;43.224;27.910;2022-12-07T03:36:21;9.63;;;7.83;;
11522;SDS011;40093;43.224;27.910;2022-12-07T03:38:56;11.53;;;8.47;;
11522;SDS011;40093;43.224;27.910;2022-12-07T03:41:29;9.67;;;8.43;;
11522;SDS011;40093;43.224;27.910;2022-12-07T03:43:59;9.87;;;7.47;;
11522;SDS011;40093;43.224;27.910;2022-12-07T03:46:29;9.50;;;7.80;;
11522;SDS011;40093;43.224;27.910;2022-12-07T03:49:06;9.00;;;7.87;;
11522;SDS011;40093;43.224;27.910;2022-12-07T03:51:40;10.30;;;9.27;;
11522;SDS011;40093;43.224;27.910;2022-12-07T03:54:13;13.47;;;10.90;;
11522;SDS011;40093;43.224;27.910;2022-12-07T03:56:44;11.77;;;10.07;;
11522;SDS011;40093;43.224;27.910;2022-12-07T03:59:13;11.27;;;9.27;;
11522;SDS011;40093;43.224;27.910;2022-12-07T04:01:44;10.97;;;9.63;;
11522;SDS011;40093;43.224;27.910;2022-12-07T04:04:19;12.83;;;11.53;;
11522;SDS011;40093;43.224;27.910;2022-12-07T04:06:46;12.13;;;10.03;;
11522;SDS011;40093;43.224;27.910;2022-12-07T04:09:13;16.03;;;13.80;;
11522;SDS011;40093;43.224;27.910;2022-12-07T04:11:41;14.07;;;11.97;;
11522;SDS011;40093;43.224;27.910;2022-12-07T04:14:08;11.70;;;9.73;;
11522;SDS011;40093;43.224;27.910;2022-12-07T04:16:54;11.40;;;9.83;;
11522;SDS011;40093;43.224;27.910;2022-12-07T04:19:23;15.23;;;12.23;;
11522;SDS011;40093;43.224;27.910;2022-12-07T04:21:51;19.27;;;14.80;;
11522;SDS011;40093;43.224;27.910;2022-12-07T04:24:18;28.53;;;19.07;;
11522;SDS011;40093;43.224;27.910;2022-12-07T04:26:45;22.43;;;15.90;;
11522;SDS011;40093;43.224;27.910;2022-12-07T04:29:13;25.17;;;18.30;;
11522;SDS011;40093;43.224;27.910;2022-12-07T04:31:41;21.37;;;16.87;;
11522;SDS011;40093;43.224;27.910;2022-12-07T04:34:11;23.23;;;18.57;;
11522;SDS011;40093;43.224;27.910;2022-12-07T04:36:39;17.47;;;14.00;;
11522;SDS011;40093;43.224;27.910;2022-12-07T04:39:07;15.83;;;12.33;;
11522;SDS011;40093;43.224;27.910;2022-12-07T04:41:39;12.17;;;10.43;;
11522;SDS011;40093;43.224;27.910;2022-12-07T04:44:06;14.40;;;11.13;;
11522;SDS011;40093;43.224;27.910;2022-12-07T04:46:33;15.20;;;11.87;;
11522;SDS011;40093;43.224;27.910;2022-12-07T04:49:01;12.87;;;11.47;;
11522;SDS011;40093;43.224;27.910;2022-12-07T04:51:29;17.80;;;12.10;;
11522;SDS011;40093;43.224;27.910;2022-12-07T04:53:59;13.43;;;11.27;;
11522;SDS011;40093;43.224;27.910;2022-12-07T04:56:26;13.50;;;10.87;;
11522;SDS011;40093;43.224;27.910;2022-12-07T04:58:53;12.70;;;11.27;;
11522;SDS011;40093;43.224;27.910;2022-12-07T05:01:21;17.50;;;13.57;;
11522;SDS011;40093;43.224;27.910;2022-12-07T05:03:49;15.30;;;12.10;;
11522;SDS011;40093;43.224;27.910;2022-12-07T05:06:17;13.77;;;11.37;;
11522;SDS011;40093;43.224;27.910;2022-12-07T05:08:45;13.10;;;11.30;;
11522;SDS011;40093;43.224;27.910;2022-12-07T05:11:13;15.63;;;12.27;;
11522;SDS011;40093;43.224;27.910;2022-12-07T05:14:00;16.37;;;14.67;;
11522;SDS011;40093;43.224;27.910;2022-12-07T05:16:29;22.00;;;19.23;;
11522;SDS011;40093;43.224;27.910;2022-12-07T05:18:56;20.20;;;18.00;;
11522;SDS011;40093;43.224;27.910;2022-12-07T05:21:23;20.30;;;17.80;;
11522;SDS011;40093;43.224;27.910;2022-12-07T05:23:51;22.27;;;18.90;;
11522;SDS011;40093;43.224;27.910;2022-12-07T05:26:18;19.77;;;15.27;;
11522;SDS011;40093;43.224;27.910;2022-12-07T05:28:49;18.00;;;13.93;;
11522;SDS011;40093;43.224;27.910;2022-12-07T05:31:16;16.43;;;12.97;;
11522;SDS011;40093;43.224;27.910;2022-12-07T05:33:43;20.73;;;16.10;;
11522;SDS011;40093;43.224;27.910;2022-12-07T05:36:10;19.00;;;14.87;;
11522;SDS011;40093;43.224;27.910;2022-12-07T05:38:37;21.17;;;15.87;;
11522;SDS011;40093;43.224;27.910;2022-12-07T05:41:06;19.40;;;15.00;;
11522;SDS011;40093;43.224;27.910;2022-12-07T05:43:54;21.17;;;15.67;;
11522;SDS011;40093;43.224;27.910;2022-12-07T05:46:21;19.97;;;15.80;;
11522;SDS011;40093;43.224;27.910;2022-12-07T05:48:48;20.60;;;15.10;;
11522;SDS011;40093;43.224;27.910;2022-12-07T05:51:15;16.77;;;12.93;;
11522;SDS011;40093;43.224;27.910;2022-12-07T05:53:42;18.53;;;13.97;;
11522;SDS011;40093;43.224;27.910;2022-12-07T05:56:10;16.17;;;12.60;;
11522;SDS011;40093;43.224;27.910;2022-12-07T05:58:37;17.87;;;12.77;;
11522;SDS011;40093;43.224;27.910;2022-12-07T06:01:22;18.43;;;15.43;;
11522;SDS011;40093;43.224;27.910;2022-12-07T06:03:49;18.03;;;14.80;;
11522;SDS011;40093;43.224;27.910;2022-12-07T06:06:16;17.27;;;13.93;;
11522;SDS011;40093;43.224;27.910;2022-12-07T06:08:44;19.17;;;15.43;;
11522;SDS011;40093;43.224;27.910;2022-12-07T06:11:12;23.87;;;17.83;;
11522;SDS011;40093;43.224;27.910;2022-12-07T06:13:57;32.10;;;19.77;;
11522;SDS011;40093;43.224;27.910;2022-12-07T06:16:24;28.80;;;18.50;;
11522;SDS011;40093;43.224;27.910;2022-12-07T06:18:51;23.50;;;15.80;;
11522;SDS011;40093;43.224;27.910;2022-12-07T06:21:18;22.50;;;16.57;;
11522;SDS011;40093;43.224;27.910;2022-12-07T06:23:45;25.30;;;19.03;;
11522;SDS011;40093;43.224;27.910;2022-12-07T06:26:14;29.87;;;22.30;;
11522;SDS011;40093;43.224;27.910;2022-12-07T06:28:41;29.07;;;20.57;;
11522;SDS011;40093;43.224;27.910;2022-12-07T06:31:09;29.07;;;20.13;;
11522;SDS011;40093;43.224;27.910;2022-12-07T06:33:36;25.47;;;18.63;;
11522;SDS011;40093;43.224;27.910;2022-12-07T06:36:03;25.07;;;18.57;;
11522;SDS011;40093;43.224;27.910;2022-12-07T06:38:31;21.27;;;16.33;;
11522;SDS011;40093;43.224;27.910;2022-12-07T06:40:58;18.73;;;15.33;;
11522;SDS011;40093;43.224;27.910;2022-12-07T06:43:28;20.77;;;16.47;;
11522;SDS011;40093;43.224;27.910;2022-12-07T06:45:55;27.70;;;17.83;;
11522;SDS011;40093;43.224;27.910;2022-12-07T06:48:24;28.73;;;20.23;;
11522;SDS011;40093;43.224;27.910;2022-12-07T06:50:51;26.50;;;21.37;;
11522;SDS011;40093;43.224;27.910;2022-12-07T06:53:18;36.33;;;26.20;;
11522;SDS011;40093;43.224;27.910;2022-12-07T06:55:45;25.53;;;20.03;;
11522;SDS011;40093;43.224;27.910;2022-12-07T06:58:12;25.47;;;18.23;;
11522;SDS011;40093;43.224;27.910;2022-12-07T07:00:40;22.80;;;17.77;;
11522;SDS011;40093;43.224;27.910;2022-12-07T07:03:07;25.80;;;17.63;;
11522;SDS011;40093;43.224;27.910;2022-12-07T07:05:34;21.50;;;17.87;;
11522;SDS011;40093;43.224;27.910;2022-12-07T07:08:02;21.23;;;17.17;;
11522;SDS011;40093;43.224;27.910;2022-12-07T07:10:29;25.93;;;17.57;;
11522;SDS011;40093;43.224;27.910;2022-12-07T07:12:57;23.50;;;17.07;;
11522;SDS011;40093;43.224;27.910;2022-12-07T07:15:24;21.83;;;16.97;;
11522;SDS011;40093;43.224;27.910;2022-12-07T07:17:52;24.60;;;17.50;;
11522;SDS011;40093;43.224;27.910;2022-12-07T07:20:19;26.60;;;20.00;;
11522;SDS011;40093;43.224;27.910;2022-12-07T07:22:46;28.70;;;19.27;;
11522;SDS011;40093;43.224;27.910;2022-12-07T07:25:13;23.40;;;17.90;;
11522;SDS011;40093;43.224;27.910;2022-12-07T07:27:44;25.43;;;18.30;;
11522;SDS011;40093;43.224;27.910;2022-12-07T07:30:12;16.37;;;13.17;;
11522;SDS011;40093;43.224;27.910;2022-12-07T07:32:39;17.67;;;13.63;;
11522;SDS011;40093;43.224;27.910;2022-12-07T07:35:08;16.63;;;13.00;;
11522;SDS011;40093;43.224;27.910;2022-12-07T07:37:35;15.70;;;11.90;;
11522;SDS011;40093;43.224;27.910;2022-12-07T07:40:05;12.70;;;9.67;;
11522;SDS011;40093;43.224;27.910;2022-12-07T07:42:33;14.30;;;11.40;;
11522;SDS011;40093;43.224;27.910;2022-12-07T07:45:00;15.43;;;11.93;;
11522;SDS011;40093;43.224;27.910;2022-12-07T07:47:27;18.37;;;13.50;;
11522;SDS011;40093;43.224;27.910;2022-12-07T07:49:54;16.93;;;12.07;;
11522;SDS011;40093;43.224;27.910;2022-12-07T07:52:23;16.07;;;12.30;;
11522;SDS011;40093;43.224;27.910;2022-12-07T07:54:50;15.43;;;12.37;;
11522;SDS011;40093;43.224;27.910;2022-12-07T07:57:18;13.90;;;12.20;;
11522;SDS011;40093;43.224;27.910;2022-12-07T07:59:44;16.03;;;12.67;;
11522;SDS011;40093;43.224;27.910;2022-12-07T08:02:13;15.60;;;13.30;;
11522;SDS011;40093;43.224;27.910;2022-12-07T08:04:43;16.83;;;13.13;;
11522;SDS011;40093;43.224;27.910;2022-12-07T08:07:10;18.60;;;12.90;;
11522;SDS011;40093;43.224;27.910;2022-12-07T08:09:39;19.53;;;14.07;;
11522;SDS011;40093;43.224;27.910;2022-12-07T08:12:07;21.73;;;17.67;;
11522;SDS011;40093;43.224;27.910;2022-12-07T08:14:34;19.90;;;15.57;;
11522;SDS011;40093;43.224;27.910;2022-12-07T08:17:01;17.60;;;14.23;;
11522;SDS011;40093;43.224;27.910;2022-12-07T08:19:29;21.70;;;14.53;;
11522;SDS011;40093;43.224;27.910;2022-12-07T08:21:57;17.67;;;14.77;;
11522;SDS011;40093;43.224;27.910;2022-12-07T08:24:24;18.43;;;14.00;;
11522;SDS011;40093;43.224;27.910;2022-12-07T08:26:54;21.57;;;13.80;;
11522;SDS011;40093;43.224;27.910;2022-12-07T08:29:21;23.17;;;13.90;;
11522;SDS011;40093;43.224;27.910;2022-12-07T08:31:48;18.93;;;13.17;;
11522;SDS011;40093;43.224;27.910;2022-12-07T08:34:15;20.37;;;14.80;;
11522;SDS011;40093;43.224;27.910;2022-12-07T08:36:42;16.33;;;12.27;;
11522;SDS011;40093;43.224;27.910;2022-12-07T08:39:09;20.27;;;15.53;;
11522;SDS011;40093;43.224;27.910;2022-12-07T08:41:37;17.70;;;15.67;;
11522;SDS011;40093;43.224;27.910;2022-12-07T08:44:06;18.00;;;13.37;;
11522;SDS011;40093;43.224;27.910;2022-12-07T08:46:34;20.90;;;14.10;;
11522;SDS011;40093;43.224;27.910;2022-12-07T08:49:04;25.43;;;15.93;;
11522;SDS011;40093;43.224;27.910;2022-12-07T08:51:35;21.87;;;15.20;;
11522;SDS011;40093;43.224;27.910;2022-12-07T08:54:03;21.80;;;14.13;;
11522;SDS011;40093;43.224;27.910;2022-12-07T08:56:33;19.80;;;14.57;;
11522;SDS011;40093;43.224;27.910;2022-12-07T08:59:01;19.90;;;14.97;;
11522;SDS011;40093;43.224;27.910;2022-12-07T09:01:30;18.53;;;14.13;;
11522;SDS011;40093;43.224;27.910;2022-12-07T09:03:57;20.77;;;14.53;;
11522;SDS011;40093;43.224;27.910;2022-12-07T09:06:24;23.47;;;14.30;;
11522;SDS011;40093;43.224;27.910;2022-12-07T09:08:52;17.87;;;12.90;;
11522;SDS011;40093;43.224;27.910;2022-12-07T09:11:24;18.10;;;14.27;;
11522;SDS011;40093;43.224;27.910;2022-12-07T09:13:51;18.23;;;14.13;;
11522;SDS011;40093;43.224;27.910;2022-12-07T09:16:18;15.87;;;11.47;;
11522;SDS011;40093;43.224;27.910;2022-12-07T09:18:46;14.70;;;10.90;;
11522;SDS011;40093;43.224;27.910;2022-12-07T09:21:13;17.13;;;13.27;;
11522;SDS011;40093;43.224;27.910;2022-12-07T09:23:41;21.17;;;12.67;;
11522;SDS011;40093;43.224;27.910;2022-12-07T09:26:08;17.37;;;11.43;;
11522;SDS011;40093;43.224;27.910;2022-12-07T09:28:35;17.20;;;11.70;;
11522;SDS011;40093;43.224;27.910;2022-12-07T09:31:02;17.30;;;11.83;;
11522;SDS011;40093;43.224;27.910;2022-12-07T09:33:30;16.43;;;11.40;;
11522;SDS011;40093;43.224;27.910;2022-12-07T09:35:59;17.53;;;13.67;;
11522;SDS011;40093;43.224;27.910;2022-12-07T09:38:27;25.17;;;19.70;;
11522;SDS011;40093;43.224;27.910;2022-12-07T09:40:55;17.57;;;13.40;;
11522;SDS011;40093;43.224;27.910;2022-12-07T09:43:22;17.30;;;13.10;;
11522;SDS011;40093;43.224;27.910;2022-12-07T09:45:52;22.27;;;12.60;;
11522;SDS011;40093;43.224;27.910;2022-12-07T09:48:21;19.83;;;13.60;;
11522;SDS011;40093;43.224;27.910;2022-12-07T09:50:51;21.07;;;12.60;;
11522;SDS011;40093;43.224;27.910;2022-12-07T09:53:23;14.13;;;11.60;;
11522;SDS011;40093;43.224;27.910;2022-12-07T09:55:53;17.87;;;13.20;;
11522;SDS011;40093;43.224;27.910;2022-12-07T09:58:21;18.33;;;12.33;;
11522;SDS011;40093;43.224;27.910;2022-12-07T10:00:52;22.30;;;13.37;;
11522;SDS011;40093;43.224;27.910;2022-12-07T10:03:21;20.27;;;13.83;;
11522;SDS011;40093;43.224;27.910;2022-12-07T10:05:49;17.17;;;12.93;;
11522;SDS011;40093;43.224;27.910;2022-12-07T10:08:26;20.53;;;12.03;;
11522;SDS011;40093;43.224;27.910;2022-12-07T10:10:54;14.73;;;11.20;;
11522;SDS011;40093;43.224;27.910;2022-12-07T10:13:34;14.00;;;11.70;;
11522;SDS011;40093;43.224;27.910;2022-12-07T10:16:03;18.60;;;12.17;;
11522;SDS011;40093;43.224;27.910;2022-12-07T10:18:32;17.73;;;11.70;;
11522;SDS011;40093;43.224;27.910;2022-12-07T10:21:05;16.60;;;12.00;;
11522;SDS011;40093;43.224;27.910;2022-12-07T10:23:41;18.13;;;16.00;;
11522;SDS011;40093;43.224;27.910;2022-12-07T10:26:26;21.00;;;12.30;;
11522;SDS011;40093;43.224;27.910;2022-12-07T10:28:55;16.87;;;11.80;;
11522;SDS011;40093;43.224;27.910;2022-12-07T10:31:25;23.50;;;12.00;;
11522;SDS011;40093;43.224;27.910;2022-12-07T10:33:53;16.33;;;11.70;;
11522;SDS011;40093;43.224;27.910;2022-12-07T10:36:23;15.20;;;11.40;;
11522;SDS011;40093;43.224;27.910;2022-12-07T10:38:58;21.03;;;13.20;;
11522;SDS011;40093;43.224;27.910;2022-12-07T10:41:28;20.50;;;12.97;;
11522;SDS011;40093;43.224;27.910;2022-12-07T10:43:55;20.80;;;12.67;;
11522;SDS011;40093;43.224;27.910;2022-12-07T10:49:37;15.40;;;11.40;;
11522;SDS011;40093;43.224;27.910;2022-12-07T10:52:18;17.63;;;12.80;;
11522;SDS011;40093;43.224;27.910;2022-12-07T10:55:21;16.87;;;12.37;;
11522;SDS011;40093;43.224;27.910;2022-12-07T10:57:56;20.53;;;12.57;;
11522;SDS011;40093;43.224;27.910;2022-12-07T11:00:35;18.90;;;12.53;;
11522;SDS011;40093;43.224;27.910;2022-12-07T11:03:18;16.87;;;12.80;;
11522;SDS011;40093;43.224;27.910;2022-12-07T11:05:59;19.90;;;13.00;;
11522;SDS011;40093;43.224;27.910;2022-12-07T11:08:39;25.10;;;14.80;;
11522;SDS011;40093;43.224;27.910;2022-12-07T11:11:19;26.13;;;16.23;;
11522;SDS011;40093;43.224;27.910;2022-12-07T11:13:55;24.60;;;16.30;;
11522;SDS011;40093;43.224;27.910;2022-12-07T11:16:36;23.50;;;14.80;;
11522;SDS011;40093;43.224;27.910;2022-12-07T11:19:17;20.57;;;13.63;;
11522;SDS011;40093;43.224;27.910;2022-12-07T11:21:56;23.47;;;15.67;;
11522;SDS011;40093;43.224;27.910;2022-12-07T11:24:27;19.00;;;13.00;;
11522;SDS011;40093;43.224;27.910;2022-12-07T11:27:12;24.27;;;17.53;;
11522;SDS011;40093;43.224;27.910;2022-12-07T11:29:58;18.07;;;14.07;;
11522;SDS011;40093;43.224;27.910;2022-12-07T11:32:44;19.10;;;13.43;;
11522;SDS011;40093;43.224;27.910;2022-12-07T11:35:30;22.23;;;14.43;;
11522;SDS011;40093;43.224;27.910;2022-12-07T11:38:07;19.53;;;14.03;;
11522;SDS011;40093;43.224;27.910;2022-12-07T11:40:38;18.83;;;13.73;;
11522;SDS011;40093;43.224;27.910;2022-12-07T11:43:13;20.20;;;12.93;;
11522;SDS011;40093;43.224;27.910;2022-12-07T11:45:47;16.13;;;12.73;;
11522;SDS011;40093;43.224;27.910;2022-12-07T11:48:22;20.17;;;15.23;;
11522;SDS011;40093;43.224;27.910;2022-12-07T11:50:56;21.20;;;15.33;;
11522;SDS011;40093;43.224;27.910;2022-12-07T11:53:26;21.43;;;13.37;;
11522;SDS011;40093;43.224;27.910;2022-12-07T11:55:56;15.10;;;11.50;;
11522;SDS011;40093;43.224;27.910;2022-12-07T12:01:20;15.57;;;11.90;;
11522;SDS011;40093;43.224;27.910;2022-12-07T12:03:56;18.90;;;12.17;;
11522;SDS011;40093;43.224;27.910;2022-12-07T12:06:30;23.43;;;15.03;;
11522;SDS011;40093;43.224;27.910;2022-12-07T12:08:58;24.63;;;15.33;;
11522;SDS011;40093;43.224;27.910;2022-12-07T12:11:34;17.77;;;13.53;;
11522;SDS011;40093;43.224;27.910;2022-12-07T12:14:19;16.17;;;12.77;;
11522;SDS011;40093;43.224;27.910;2022-12-07T12:17:19;14.33;;;11.83;;
11522;SDS011;40093;43.224;27.910;2022-12-07T12:20:00;16.90;;;13.30;;
11522;SDS011;40093;43.224;27.910;2022-12-07T12:22:33;18.23;;;13.73;;
11522;SDS011;40093;43.224;27.910;2022-12-07T12:25:04;21.07;;;14.70;;
11522;SDS011;40093;43.224;27.910;2022-12-07T12:27:34;20.30;;;15.23;;
11522;SDS011;40093;43.224;27.910;2022-12-07T12:30:05;26.57;;;16.53;;
11522;SDS011;40093;43.224;27.910;2022-12-07T12:32:37;20.83;;;12.97;;
11522;SDS011;40093;43.224;27.910;2022-12-07T12:35:27;21.17;;;14.73;;
11522;SDS011;40093;43.224;27.910;2022-12-07T12:40:56;18.23;;;12.13;;
11522;SDS011;40093;43.224;27.910;2022-12-07T12:55:17;19.83;;;12.17;;
11522;SDS011;40093;43.224;27.910;2022-12-07T13:03:56;20.43;;;13.53;;
11522;SDS011;40093;43.224;27.910;2022-12-07T13:06:32;21.37;;;14.53;;
11522;SDS011;40093;43.224;27.910;2022-12-07T13:09:03;18.73;;;14.13;;
11522;SDS011;40093;43.224;27.910;2022-12-07T13:11:32;28.57;;;16.47;;
11522;SDS011;40093;43.224;27.910;2022-12-07T13:17:07;44.23;;;24.47;;
11522;SDS011;40093;43.224;27.910;2022-12-07T13:25:20;21.40;;;13.17;;
11522;SDS011;40093;43.224;27.910;2022-12-07T13:27:55;20.27;;;12.73;;
11522;SDS011;40093;43.224;27.910;2022-12-07T13:30:24;21.87;;;13.93;;
11522;SDS011;40093;43.224;27.910;2022-12-07T13:32:53;27.30;;;14.27;;
11522;SDS011;40093;43.224;27.910;2022-12-07T13:35:30;29.50;;;16.27;;
11522;SDS011;40093;43.224;27.910;2022-12-07T13:37:58;25.43;;;18.23;;
11522;SDS011;40093;43.224;27.910;2022-12-07T13:40:27;30.27;;;20.23;;
11522;SDS011;40093;43.224;27.910;2022-12-07T13:42:57;32.97;;;22.67;;
11522;SDS011;40093;43.224;27.910;2022-12-07T13:45:25;33.17;;;23.40;;
11522;SDS011;40093;43.224;27.910;2022-12-07T13:48:14;19.93;;;12.67;;
11522;SDS011;40093;43.224;27.910;2022-12-07T13:50:53;16.53;;;12.77;;
11522;SDS011;40093;43.224;27.910;2022-12-07T13:53:20;20.03;;;13.43;;
11522;SDS011;40093;43.224;27.910;2022-12-07T13:55:48;22.43;;;14.13;;
11522;SDS011;40093;43.224;27.910;2022-12-07T13:58:15;18.00;;;13.10;;
11522;SDS011;40093;43.224;27.910;2022-12-07T14:00:43;20.40;;;13.93;;
11522;SDS011;40093;43.224;27.910;2022-12-07T14:03:30;18.20;;;13.60;;
11522;SDS011;40093;43.224;27.910;2022-12-07T14:09:08;22.40;;;16.40;;
11522;SDS011;40093;43.224;27.910;2022-12-07T14:11:44;27.60;;;18.63;;
11522;SDS011;40093;43.224;27.910;2022-12-07T14:14:13;21.60;;;15.23;;
11522;SDS011;40093;43.224;27.910;2022-12-07T14:16:43;21.50;;;16.67;;
11522;SDS011;40093;43.224;27.910;2022-12-07T14:22:18;35.77;;;24.50;;
11522;SDS011;40093;43.224;27.910;2022-12-07T14:24:48;34.50;;;20.13;;
11522;SDS011;40093;43.224;27.910;2022-12-07T14:27:17;32.13;;;22.87;;
11522;SDS011;40093;43.224;27.910;2022-12-07T14:29:46;38.70;;;23.43;;
11522;SDS011;40093;43.224;27.910;2022-12-07T14:32:21;38.20;;;24.80;;
11522;SDS011;40093;43.224;27.910;2022-12-07T14:34:54;35.53;;;21.43;;
11522;SDS011;40093;43.224;27.910;2022-12-07T14:37:27;28.50;;;18.33;;
11522;SDS011;40093;43.224;27.910;2022-12-07T14:39:55;32.43;;;20.47;;
11522;SDS011;40093;43.224;27.910;2022-12-07T14:42:23;30.80;;;20.40;;
11522;SDS011;40093;43.224;27.910;2022-12-07T14:44:53;35.17;;;20.03;;
11522;SDS011;40093;43.224;27.910;2022-12-07T14:47:20;31.33;;;18.10;;
11522;SDS011;40093;43.224;27.910;2022-12-07T14:49:47;37.90;;;22.57;;
11522;SDS011;40093;43.224;27.910;2022-12-07T14:52:15;33.87;;;22.97;;
11522;SDS011;40093;43.224;27.910;2022-12-07T14:54:47;35.43;;;21.00;;
11522;SDS011;40093;43.224;27.910;2022-12-07T14:57:14;31.10;;;21.10;;
11522;SDS011;40093;43.224;27.910;2022-12-07T14:59:41;25.57;;;18.67;;
11522;SDS011;40093;43.224;27.910;2022-12-07T15:02:09;34.37;;;23.10;;
11522;SDS011;40093;43.224;27.910;2022-12-07T15:04:38;34.93;;;23.33;;
11522;SDS011;40093;43.224;27.910;2022-12-07T15:07:08;40.57;;;24.40;;
11522;SDS011;40093;43.224;27.910;2022-12-07T15:09:45;43.53;;;25.40;;
11522;SDS011;40093;43.224;27.910;2022-12-07T15:12:13;49.17;;;25.40;;
11522;SDS011;40093;43.224;27.910;2022-12-07T15:14:41;40.63;;;24.67;;
11522;SDS011;40093;43.224;27.910;2022-12-07T15:17:10;39.17;;;21.80;;
11522;SDS011;40093;43.224;27.910;2022-12-07T15:19:38;41.17;;;23.77;;
11522;SDS011;40093;43.224;27.910;2022-12-07T15:22:05;51.03;;;27.77;;